createdAt,value
2018-04-02T00:00:05.602Z,94.10
2018-04-02T00:02:33.096Z,93.70
2018-04-02T00:05:00.525Z,93.80
2018-04-02T00:07:27.979Z,93.80
2018-04-02T00:09:55.479Z,93.80
2018-04-02T00:12:22.884Z,93.80
2018-04-02T00:14:50.533Z,93.70
2018-04-02T00:17:17.976Z,93.80
2018-04-02T00:19:46.239Z,93.70
2018-04-02T00:22:13.670Z,93.70
2018-04-02T00:24:41.102Z,94.10
2018-04-02T00:27:08.546Z,94.20
2018-04-02T00:29:35.992Z,94.20
2018-04-02T00:32:03.437Z,94.00
2018-04-02T00:34:31.654Z,94.10
2018-04-02T00:36:59.084Z,94.00
2018-04-02T00:39:26.521Z,94.10
2018-04-02T00:41:54.729Z,94.50
2018-04-02T00:44:22.193Z,94.50
2018-04-02T00:46:49.645Z,94.40
2018-04-02T00:49:17.080Z,94.20
2018-04-02T00:51:44.525Z,94.50
2018-04-02T00:54:12.746Z,94.40
2018-04-02T00:56:40.201Z,94.40
2018-04-02T00:59:07.656Z,94.50
2018-04-02T01:01:35.086Z,94.50
2018-04-02T01:04:02.528Z,94.80
2018-04-02T01:06:30.739Z,94.90
2018-04-02T01:08:58.169Z,94.90
2018-04-02T01:11:26.771Z,94.50
2018-04-02T01:13:54.217Z,94.50
2018-04-02T01:16:21.645Z,94.80
2018-04-02T01:18:49.091Z,95.00
2018-04-02T01:21:16.534Z,94.40
2018-04-02T01:23:43.977Z,93.90
2018-04-02T01:26:11.425Z,93.10
2018-04-02T01:28:38.859Z,93.20
2018-04-02T01:33:40.152Z,92.90
2018-04-02T01:36:07.585Z,92.80
2018-04-02T01:38:35.044Z,92.90
2018-04-02T01:41:03.236Z,93.70
2018-04-02T01:43:30.693Z,93.70
2018-04-02T01:45:58.126Z,93.10
2018-04-02T01:48:26.331Z,93.00
2018-04-02T01:50:53.810Z,93.00
2018-04-02T01:53:21.240Z,92.90
2018-04-02T01:55:48.682Z,92.60
2018-04-02T01:58:16.129Z,92.10
2018-04-02T02:00:44.338Z,92.30
2018-04-02T02:03:11.779Z,92.20
2018-04-02T02:05:39.215Z,92.30
2018-04-02T02:08:07.422Z,92.60
2018-04-02T02:10:34.877Z,92.60
2018-04-02T02:13:02.328Z,92.60
2018-04-02T02:15:29.762Z,92.20
2018-04-02T02:17:57.959Z,92.20
2018-04-02T02:20:25.399Z,92.20
2018-04-02T02:22:53.619Z,92.20
2018-04-02T02:25:22.105Z,92.10
2018-04-02T02:27:49.558Z,92.00
2018-04-02T02:30:16.998Z,92.00
2018-04-02T02:32:44.454Z,92.40
2018-04-02T02:35:11.934Z,92.30
2018-04-02T02:37:39.390Z,92.30
2018-04-02T02:40:06.812Z,92.40
2018-04-02T02:42:34.257Z,92.50
2018-04-02T02:45:02.461Z,93.00
2018-04-02T02:47:29.908Z,93.00
2018-04-02T02:49:57.340Z,93.10
2018-04-02T02:52:25.533Z,93.10
2018-04-02T02:54:52.975Z,93.00
2018-04-02T02:57:21.186Z,93.40
2018-04-02T02:59:48.648Z,93.30
2018-04-02T03:02:16.086Z,93.30
2018-04-02T03:04:43.527Z,93.20
2018-04-02T03:07:11.730Z,93.30
2018-04-02T03:09:39.192Z,93.30
2018-04-02T03:12:06.607Z,93.30
2018-04-02T03:14:34.833Z,93.40
2018-04-02T03:17:02.261Z,93.40
2018-04-02T03:19:29.735Z,93.50
2018-04-02T03:21:57.153Z,93.60
2018-04-02T03:24:25.365Z,93.70
2018-04-02T03:26:52.797Z,93.60
2018-04-02T03:29:20.999Z,93.90
2018-04-02T03:31:48.451Z,94.30
2018-04-02T03:34:15.893Z,93.90
2018-04-02T03:36:43.322Z,93.90
2018-04-02T03:39:10.756Z,93.80
2018-04-02T03:41:38.186Z,93.90
2018-04-02T03:44:05.617Z,94.00
2018-04-02T03:46:33.049Z,94.00
2018-04-02T03:49:00.489Z,93.60
2018-04-02T03:51:27.917Z,93.80
2018-04-02T03:53:55.371Z,93.60
2018-04-02T03:56:22.805Z,93.60
2018-04-02T03:58:51.001Z,93.60
2018-04-02T04:01:18.426Z,93.60
2018-04-02T04:03:46.635Z,93.60
2018-04-02T04:06:14.092Z,93.60
2018-04-02T04:08:41.513Z,93.50
2018-04-02T04:11:09.727Z,93.70
2018-04-02T04:13:37.161Z,93.70
2018-04-02T04:16:04.588Z,93.60
2018-04-02T04:18:32.019Z,93.70
2018-04-02T04:20:59.461Z,94.10
2018-04-02T04:23:26.908Z,93.90
2018-04-02T04:25:54.339Z,94.00
2018-04-02T04:28:22.529Z,93.90
2018-04-02T04:30:50.160Z,93.80
2018-04-02T04:33:17.586Z,94.00
2018-04-02T04:35:45.030Z,94.10
2018-04-02T04:38:12.461Z,93.90
2018-04-02T04:40:39.898Z,93.80
2018-04-02T04:43:08.094Z,93.60
2018-04-02T04:45:35.553Z,93.60
2018-04-02T04:48:02.982Z,93.60
2018-04-02T04:50:31.199Z,93.50
2018-04-02T04:52:58.634Z,93.40
2018-04-02T04:55:26.829Z,92.90
2018-04-02T04:57:54.278Z,92.50
2018-04-02T05:00:21.721Z,92.50
2018-04-02T05:02:49.158Z,92.40
2018-04-02T05:05:17.374Z,92.90
2018-04-02T05:07:44.805Z,92.90
2018-04-02T05:10:12.254Z,92.80
2018-04-02T05:12:40.455Z,92.60
2018-04-02T05:15:07.902Z,92.60
2018-04-02T05:17:35.346Z,92.70
2018-04-02T05:20:04.069Z,93.10
2018-04-02T05:22:31.498Z,93.10
2018-04-02T05:24:59.704Z,93.30
2018-04-02T05:27:27.135Z,93.30
2018-04-02T05:29:54.573Z,93.30
2018-04-02T05:32:22.778Z,93.70
2018-04-02T05:34:50.217Z,93.70
2018-04-02T05:37:18.415Z,93.90
2018-04-02T05:39:45.896Z,93.80
2018-04-02T05:42:14.038Z,93.70
2018-04-02T05:44:41.464Z,93.70
2018-04-02T05:47:09.690Z,94.10
2018-04-02T05:49:37.368Z,93.70
2018-04-02T05:52:04.805Z,93.70
2018-04-02T05:54:32.274Z,93.00
2018-04-02T05:56:59.725Z,92.90
2018-04-02T05:59:27.150Z,92.70
2018-04-02T06:01:55.357Z,92.60
2018-04-02T06:04:22.814Z,92.60
2018-04-02T06:06:50.259Z,92.40
2018-04-02T06:09:17.715Z,92.40
2018-04-02T06:11:45.599Z,92.90
2018-04-02T06:14:13.017Z,92.60
2018-04-02T06:16:41.282Z,93.10
2018-04-02T06:19:08.665Z,93.10
2018-04-02T06:21:36.122Z,92.90
2018-04-02T06:24:03.562Z,92.20
2018-04-02T06:26:31.776Z,91.30
2018-04-02T06:28:59.234Z,91.30
2018-04-02T06:31:26.671Z,91.40
2018-04-02T06:33:54.111Z,91.30
2018-04-02T06:36:22.370Z,91.20
2018-04-02T06:38:49.829Z,91.20
2018-04-02T06:41:17.693Z,91.40
2018-04-02T06:43:45.124Z,91.50
2018-04-02T06:46:12.569Z,91.80
2018-04-02T06:48:40.002Z,92.50
2018-04-02T06:51:07.442Z,92.20
2018-04-02T06:53:35.640Z,91.30
2018-04-02T06:56:03.080Z,91.30
2018-04-02T06:58:31.283Z,91.00
2018-04-02T07:00:58.729Z,90.90
2018-04-02T07:03:26.161Z,90.70
2018-04-02T07:05:54.374Z,90.00
2018-04-02T07:08:21.809Z,90.40
2018-04-02T07:10:49.256Z,89.40
2018-04-02T07:13:17.480Z,86.60
2018-04-02T07:15:44.933Z,86.60
2018-04-02T07:18:12.380Z,84.70
2018-04-02T07:20:39.833Z,85.60
2018-04-02T07:23:07.338Z,85.70
2018-04-02T07:25:34.709Z,86.20
2018-04-02T07:28:02.913Z,88.40
2018-04-02T07:30:30.361Z,88.40
2018-04-02T07:32:58.547Z,87.30
2018-04-02T07:35:25.988Z,87.30
2018-04-02T07:37:54.178Z,82.80
2018-04-02T07:40:21.610Z,82.70
2018-04-02T07:42:49.820Z,82.60
2018-04-02T07:45:17.283Z,82.60
2018-04-02T07:47:44.736Z,80.80
2018-04-02T07:50:12.231Z,79.00
2018-04-02T07:52:40.472Z,78.60
2018-04-02T07:55:07.905Z,80.00
2018-04-02T07:57:35.345Z,79.30
2018-04-02T08:00:03.561Z,79.50
2018-04-02T08:02:31.004Z,79.50
2018-04-02T08:04:58.435Z,80.50
2018-04-02T08:07:26.637Z,79.50
2018-04-02T08:09:54.084Z,79.50
2018-04-02T08:12:21.528Z,78.00
2018-04-02T08:14:49.742Z,75.40
2018-04-02T08:17:17.610Z,75.20
2018-04-02T08:19:45.065Z,74.70
2018-04-02T08:22:12.520Z,73.10
2018-04-02T08:24:39.946Z,72.60
2018-04-02T08:27:08.166Z,71.00
2018-04-02T08:29:35.629Z,71.00
2018-04-02T08:32:03.061Z,71.20
2018-04-02T08:34:30.500Z,70.90
2018-04-02T08:36:57.954Z,71.70
2018-04-02T08:39:26.169Z,70.10
2018-04-02T08:41:53.620Z,70.10
2018-04-02T08:44:21.101Z,70.60
2018-04-02T08:46:48.510Z,72.10
2018-04-02T08:49:16.713Z,71.70
2018-04-02T08:51:44.154Z,71.70
2018-04-02T08:54:11.610Z,71.20
2018-04-02T08:56:39.045Z,69.90
2018-04-02T08:59:07.257Z,70.10
2018-04-02T09:01:34.693Z,70.00
2018-04-02T09:04:02.143Z,68.40
2018-04-02T09:06:30.342Z,68.00
2018-04-02T09:08:57.786Z,68.80
2018-04-02T09:11:25.232Z,68.40
2018-04-02T09:13:53.431Z,68.70
2018-04-02T09:16:20.874Z,68.60
2018-04-02T09:18:48.329Z,67.90
2018-04-02T09:21:15.776Z,69.30
2018-04-02T09:23:44.629Z,68.10
2018-04-02T09:26:12.070Z,69.30
2018-04-02T09:28:39.506Z,69.40
2018-04-02T09:31:06.940Z,68.10
2018-04-02T09:33:34.401Z,66.00
2018-04-02T09:36:01.833Z,66.10
2018-04-02T09:38:29.272Z,66.80
2018-04-02T09:40:56.722Z,65.90
2018-04-02T09:43:24.162Z,68.30
2018-04-02T09:45:51.597Z,67.00
2018-04-02T09:48:19.038Z,65.90
2018-04-02T09:50:47.257Z,67.10
2018-04-02T09:53:14.722Z,67.00
2018-04-02T09:55:42.164Z,67.20
2018-04-02T09:58:09.611Z,66.90
2018-04-02T10:00:37.977Z,67.40
2018-04-02T10:03:05.444Z,68.30
2018-04-02T10:05:32.894Z,67.50
2018-04-02T10:08:00.362Z,68.70
2018-04-02T10:10:27.839Z,66.90
2018-04-02T10:12:56.010Z,63.80
2018-04-02T10:15:23.478Z,63.80
2018-04-02T10:17:50.910Z,63.30
2018-04-02T10:20:18.344Z,63.10
2018-04-02T10:22:46.565Z,60.80
2018-04-02T10:25:13.999Z,60.90
2018-04-02T10:27:41.458Z,61.70
2018-04-02T10:30:08.896Z,62.30
2018-04-02T10:32:36.342Z,61.70
2018-04-02T10:35:04.559Z,61.90
2018-04-02T10:37:32.011Z,61.90
2018-04-02T10:39:59.453Z,59.80
2018-04-02T10:42:26.926Z,59.20
2018-04-02T10:44:55.109Z,57.30
2018-04-02T10:47:22.549Z,57.30
2018-04-02T10:49:50.001Z,56.30
2018-04-02T10:52:17.462Z,53.50
2018-04-02T10:54:44.898Z,52.90
2018-04-02T10:57:13.122Z,54.90
2018-04-02T10:59:40.604Z,54.90
2018-04-02T11:02:08.052Z,52.70
2018-04-02T11:04:35.501Z,53.50
2018-04-02T11:07:02.938Z,54.50
2018-04-02T11:09:30.385Z,52.90
2018-04-02T11:11:57.839Z,54.20
2018-04-02T11:14:25.297Z,54.20
2018-04-02T11:16:53.470Z,53.60
2018-04-02T11:19:20.925Z,53.60
2018-04-02T11:21:48.365Z,53.80
2018-04-02T11:24:16.614Z,54.80
2018-04-02T11:26:44.068Z,54.70
2018-04-02T11:29:11.505Z,54.30
2018-04-02T11:31:38.949Z,51.50
2018-04-02T11:34:06.384Z,49.40
2018-04-02T11:36:33.841Z,49.50
2018-04-02T11:39:02.138Z,48.60
2018-04-02T11:41:29.570Z,48.60
2018-04-02T11:43:57.026Z,48.50
2018-04-02T11:46:25.297Z,50.30
2018-04-02T11:48:53.516Z,51.30
2018-04-02T11:51:20.950Z,51.20
2018-04-02T11:53:48.394Z,53.00
2018-04-02T11:56:15.846Z,52.70
2018-04-02T11:58:44.955Z,53.30
2018-04-02T12:01:12.408Z,53.30
2018-04-02T12:03:40.608Z,53.30
2018-04-02T12:06:08.037Z,53.30
2018-04-02T12:08:36.236Z,53.60
2018-04-02T12:11:03.669Z,53.40
2018-04-02T12:13:31.112Z,53.10
2018-04-02T12:15:59.326Z,54.00
2018-04-02T12:18:26.768Z,53.90
2018-04-02T12:20:54.312Z,53.30
2018-04-02T12:23:21.679Z,53.00
2018-04-02T12:25:50.869Z,51.40
2018-04-02T12:28:19.079Z,51.20
2018-04-02T12:30:46.556Z,51.00
2018-04-02T12:33:15.433Z,50.90
2018-04-02T12:35:42.864Z,51.80
2018-04-02T12:38:10.291Z,52.40
2018-04-02T12:40:37.744Z,52.20
2018-04-02T12:43:05.205Z,53.00
2018-04-02T12:45:32.646Z,52.80
2018-04-02T12:48:00.093Z,53.00
2018-04-02T12:50:27.534Z,52.10
2018-04-02T12:52:54.980Z,51.90
2018-04-02T12:55:22.424Z,49.50
2018-04-02T12:57:49.858Z,47.40
2018-04-02T13:00:18.073Z,49.40
2018-04-02T13:02:45.518Z,49.20
2018-04-02T13:05:12.977Z,48.80
2018-04-02T13:07:40.425Z,49.20
2018-04-02T13:10:07.869Z,49.60
2018-04-02T13:12:36.077Z,50.90
2018-04-02T13:15:03.512Z,50.80
2018-04-02T13:17:30.947Z,50.30
2018-04-02T13:19:59.152Z,49.30
2018-04-02T13:22:26.582Z,49.30
2018-04-02T13:24:54.787Z,48.10
2018-04-02T13:27:22.222Z,48.00
2018-04-02T13:29:50.431Z,45.60
2018-04-02T13:32:17.894Z,45.50
2018-04-02T13:34:45.348Z,46.50
2018-04-02T13:37:12.786Z,46.10
2018-04-02T13:39:40.244Z,46.10
2018-04-02T13:42:07.678Z,45.60
2018-04-02T13:44:35.900Z,47.10
2018-04-02T13:47:03.343Z,47.00
2018-04-02T13:49:30.772Z,47.90
2018-04-02T13:51:58.982Z,48.20
2018-04-02T13:54:26.433Z,48.20
2018-04-02T13:56:53.870Z,48.70
2018-04-02T13:59:22.074Z,49.10
2018-04-02T14:01:49.517Z,49.10
2018-04-02T14:04:16.973Z,49.60
2018-04-02T14:06:44.418Z,49.50
2018-04-02T14:09:12.640Z,49.90
2018-04-02T14:11:40.075Z,49.90
2018-04-02T14:14:07.503Z,49.40
2018-04-02T14:16:35.714Z,49.80
2018-04-02T14:19:03.169Z,49.70
2018-04-02T14:21:30.617Z,50.10
2018-04-02T14:23:58.049Z,50.50
2018-04-02T14:26:26.259Z,50.40
2018-04-02T14:28:53.676Z,50.40
2018-04-02T14:31:21.877Z,50.60
2018-04-02T14:33:49.315Z,50.60
2018-04-02T14:36:17.521Z,51.10
2018-04-02T14:38:44.969Z,50.90
2018-04-02T14:41:12.401Z,50.80
2018-04-02T14:43:40.937Z,50.70
2018-04-02T14:46:08.379Z,50.60
2018-04-02T14:48:35.814Z,50.80
2018-04-02T14:51:03.261Z,50.50
2018-04-02T14:53:31.473Z,50.90
2018-04-02T14:55:58.917Z,50.90
2018-04-02T14:58:26.358Z,50.70
2018-04-02T15:00:53.804Z,50.20
2018-04-02T15:03:22.050Z,50.80
2018-04-02T15:05:49.490Z,50.80
2018-04-02T15:08:17.697Z,49.80
2018-04-02T15:10:45.133Z,49.80
2018-04-02T15:13:12.569Z,50.70
2018-04-02T15:15:40.010Z,49.60
2018-04-02T15:18:07.452Z,49.10
2018-04-02T15:20:35.658Z,50.00
2018-04-02T15:23:03.093Z,49.90
2018-04-02T15:25:30.529Z,48.80
2018-04-02T15:27:58.740Z,49.40
2018-04-02T15:30:26.229Z,49.30
2018-04-02T15:32:53.675Z,49.20
2018-04-02T15:35:21.121Z,50.10
2018-04-02T15:37:48.554Z,50.70
2018-04-02T15:40:16.910Z,49.80
2018-04-02T15:42:44.541Z,50.70
2018-04-02T15:45:11.989Z,51.90
2018-04-02T15:47:39.428Z,51.70
2018-04-02T15:50:06.864Z,51.90
2018-04-02T15:52:34.321Z,51.80
2018-04-02T15:55:01.768Z,51.50
2018-04-02T15:57:29.973Z,52.00
2018-04-02T15:59:57.412Z,52.00
2018-04-02T16:02:25.529Z,53.00
2018-04-02T16:04:52.974Z,56.60
2018-04-02T16:07:20.425Z,58.50
2018-04-02T16:09:47.857Z,58.30
2018-04-02T16:12:15.320Z,59.00
2018-04-02T16:14:42.741Z,57.50
2018-04-02T16:17:10.203Z,57.40
2018-04-02T16:19:37.633Z,57.00
2018-04-02T16:22:05.094Z,56.50
2018-04-02T16:24:32.521Z,56.90
2018-04-02T16:26:59.965Z,55.80
2018-04-02T16:29:27.409Z,56.30
2018-04-02T16:31:55.610Z,56.60
2018-04-02T16:34:23.051Z,56.60
2018-04-02T16:36:50.485Z,56.10
2018-04-02T16:39:18.686Z,55.70
2018-04-02T16:41:46.137Z,55.60
2018-04-02T16:44:13.570Z,55.00
2018-04-02T16:46:41.812Z,57.10
2018-04-02T16:49:09.236Z,57.00
2018-04-02T16:51:36.678Z,56.40
2018-04-02T16:54:04.882Z,54.10
2018-04-02T16:56:33.098Z,53.80
2018-04-02T16:59:00.537Z,53.80
2018-04-02T17:01:27.993Z,54.50
2018-04-02T17:03:55.449Z,54.60
2018-04-02T17:06:22.933Z,54.20
2018-04-02T17:08:50.372Z,53.90
2018-04-02T17:11:17.810Z,53.80
2018-04-02T17:13:45.236Z,54.10
2018-04-02T17:16:12.707Z,54.50
2018-04-02T17:18:40.150Z,54.70
2018-04-02T17:21:08.361Z,54.70
2018-04-02T17:23:35.830Z,54.70
2018-04-02T17:26:03.269Z,55.20
2018-04-02T17:28:30.724Z,55.60
2018-04-02T17:30:58.170Z,55.80
2018-04-02T17:33:25.617Z,55.70
2018-04-02T17:35:53.047Z,55.40
2018-04-02T17:38:20.497Z,55.70
2018-04-02T17:40:47.921Z,55.80
2018-04-02T17:43:15.401Z,55.40
2018-04-02T17:45:42.869Z,55.70
2018-04-02T17:48:10.325Z,56.00
2018-04-02T17:50:37.760Z,55.60
2018-04-02T17:53:05.217Z,55.40
2018-04-02T17:55:32.641Z,55.80
2018-04-02T17:58:00.093Z,55.90
2018-04-02T18:00:27.579Z,54.80
2018-04-02T18:02:55.341Z,55.20
2018-04-02T18:05:22.777Z,55.00
2018-04-02T18:07:50.209Z,54.30
2018-04-02T18:10:18.423Z,54.20
2018-04-02T18:12:46.424Z,54.20
2018-04-02T18:15:14.701Z,53.90
2018-04-02T18:17:42.261Z,53.80
2018-04-02T18:20:09.795Z,54.10
2018-04-02T18:22:37.325Z,54.30
2018-04-02T18:25:05.529Z,55.30
2018-04-02T18:27:32.971Z,55.30
2018-04-02T18:30:00.409Z,55.20
2018-04-02T18:32:27.900Z,54.60
2018-04-02T18:34:55.338Z,54.70
2018-04-02T18:37:22.866Z,55.30
2018-04-02T18:39:50.294Z,54.90
2018-04-02T18:42:17.773Z,54.40
2018-04-02T18:44:45.285Z,54.80
2018-04-02T18:47:12.835Z,55.20
2018-04-02T18:49:40.854Z,56.40
2018-04-02T18:52:08.307Z,57.50
2018-04-02T18:54:35.777Z,56.80
2018-04-02T18:57:03.233Z,57.20
2018-04-02T18:59:30.723Z,57.70
2018-04-02T19:01:58.127Z,56.70
2018-04-02T19:04:27.612Z,56.50
2018-04-02T19:06:55.050Z,56.40
2018-04-02T19:09:22.494Z,57.00
2018-04-02T19:11:50.935Z,57.70
2018-04-02T19:14:18.387Z,57.60
2018-04-02T19:16:45.823Z,57.30
2018-04-02T19:19:13.291Z,57.10
2018-04-02T19:21:41.546Z,56.20
2018-04-02T19:24:09.010Z,56.80
2018-04-02T19:26:36.535Z,56.50
2018-04-02T19:29:04.061Z,57.00
2018-04-02T19:31:31.527Z,56.90
2018-04-02T19:33:58.985Z,57.10
2018-04-02T19:36:26.519Z,57.50
2018-04-02T19:38:53.969Z,56.80
2018-04-02T19:41:21.622Z,57.10
2018-04-02T19:43:49.102Z,57.10
2018-04-02T19:46:16.598Z,57.60
2018-04-02T19:48:44.077Z,57.50
2018-04-02T19:51:11.530Z,57.60
2018-04-02T19:53:39.738Z,57.70
2018-04-02T19:56:07.182Z,57.60
2018-04-02T19:58:34.654Z,57.70
2018-04-02T20:01:02.126Z,57.80
2018-04-02T20:03:29.558Z,57.60
2018-04-02T20:05:57.009Z,57.60
2018-04-02T20:08:24.466Z,58.50
2018-04-02T20:10:51.905Z,58.80
2018-04-02T20:13:20.122Z,59.40
2018-04-02T20:15:47.602Z,59.40
2018-04-02T20:18:15.811Z,59.30
2018-04-02T20:20:44.075Z,59.80
2018-04-02T20:23:11.590Z,59.70
2018-04-02T20:25:39.035Z,59.30
2018-04-02T20:28:06.520Z,60.00
2018-04-02T20:30:33.980Z,59.70
2018-04-02T20:33:01.424Z,60.40
2018-04-02T20:35:28.856Z,59.70
2018-04-02T20:37:56.340Z,59.70
2018-04-02T20:40:23.797Z,60.00
2018-04-02T20:42:51.258Z,59.80
2018-04-02T20:45:18.730Z,59.40
2018-04-02T20:47:46.333Z,59.50
2018-04-02T20:50:14.575Z,59.70
2018-04-02T20:52:42.073Z,59.60
2018-04-02T20:55:09.518Z,59.50
2018-04-02T20:57:37.738Z,60.00
2018-04-02T21:00:05.190Z,59.90
2018-04-02T21:02:32.634Z,59.60
2018-04-02T21:05:00.074Z,59.60
2018-04-02T21:07:28.298Z,60.00
2018-04-02T21:09:55.754Z,60.00
2018-04-02T21:12:23.214Z,60.30
2018-04-02T21:14:50.728Z,60.10
2018-04-02T21:17:19.010Z,60.00
2018-04-02T21:19:46.503Z,60.30
2018-04-02T21:22:14.685Z,60.00
2018-04-02T21:24:42.130Z,60.00
2018-04-02T21:27:09.581Z,59.80
2018-04-02T21:29:37.031Z,60.20
2018-04-02T21:32:04.481Z,60.00
2018-04-02T21:34:31.923Z,60.70
2018-04-02T21:36:59.373Z,60.40
2018-04-02T21:39:27.578Z,62.60
2018-04-02T21:41:55.020Z,62.50
2018-04-02T21:44:22.529Z,64.10
2018-04-02T21:46:50.027Z,64.50
2018-04-02T21:49:18.238Z,65.00
2018-04-02T21:51:45.693Z,64.80
2018-04-02T21:54:13.182Z,64.90
2018-04-02T21:56:40.786Z,64.80
2018-04-02T21:59:09.029Z,64.00
2018-04-02T22:01:36.525Z,63.90
2018-04-02T22:04:03.992Z,64.60
2018-04-02T22:06:43.403Z,64.30
2018-04-02T22:09:11.692Z,65.60
2018-04-02T22:11:39.193Z,65.60
2018-04-02T22:14:06.660Z,65.70
2018-04-02T22:16:34.137Z,66.00
2018-04-02T22:19:01.588Z,66.10
2018-04-02T22:21:29.037Z,66.30
2018-04-02T22:23:56.517Z,67.00
2018-04-02T22:26:25.609Z,67.60
2018-04-02T22:28:53.078Z,67.50
2018-04-02T22:31:21.294Z,67.00
2018-04-02T22:33:48.774Z,66.90
2018-04-02T22:36:16.224Z,66.50
2018-04-02T22:38:43.664Z,66.60
2018-04-02T22:41:11.161Z,67.40
2018-04-02T22:43:38.621Z,67.70
2018-04-02T22:46:06.142Z,68.20
2018-04-02T22:48:33.649Z,68.20
2018-04-02T22:51:01.194Z,69.70
2018-04-02T22:53:28.690Z,68.90
2018-04-02T22:55:56.916Z,68.00
2018-04-02T22:58:24.365Z,68.00
2018-04-02T23:00:51.813Z,68.50
2018-04-02T23:03:19.314Z,68.30
2018-04-02T23:05:46.753Z,69.00
2018-04-02T23:08:14.205Z,69.50
2018-04-02T23:10:41.705Z,69.10
2018-04-02T23:13:09.910Z,69.20
2018-04-02T23:15:37.377Z,69.90
2018-04-02T23:18:05.479Z,69.80
2018-04-02T23:20:32.921Z,69.80
2018-04-02T23:23:00.375Z,70.40
2018-04-02T23:25:27.842Z,70.60
2018-04-02T23:27:55.316Z,72.60
2018-04-02T23:30:22.756Z,73.30
2018-04-02T23:32:50.194Z,75.10
2018-04-02T23:35:17.650Z,75.30
2018-04-02T23:37:45.503Z,77.30
2018-04-02T23:40:12.958Z,77.20
2018-04-02T23:42:41.181Z,78.40
2018-04-02T23:45:08.622Z,78.40
2018-04-02T23:47:36.065Z,78.50
2018-04-02T23:50:03.534Z,79.50
2018-04-02T23:52:30.970Z,78.80
2018-04-02T23:54:58.421Z,79.70
2018-04-02T23:57:25.870Z,80.60
2018-04-02T23:59:53.329Z,80.10
